Time;durP1;ratioP1;P1;durP2;ratioP2;P2;SDS_P1;SDS_P2;PMS_P1;PMS_P2;Temp;Humidity;BMP_temperature;BMP_pressure;BME280_temperature;BME280_humidity;BME280_pressure;Samples;Min_cycle;Max_cycle;Signal;HPM_P1;HPM_P2
2023/08/09 00:02:03;;;;;;;5.77;4.20;;;;;;;12.53;100.00;100488.88;5042777;28;20537;-78
2023/08/09 00:04:32;;;;;;;5.23;4.17;;;;;;;12.43;100.00;100493.97;5047434;28;20487;-78
2023/08/09 00:07:01;;;;;;;3.53;3.23;;;;;;;12.24;100.00;100486.88;5039789;28;20407;-79
2023/08/09 00:09:31;;;;;;;6.93;3.53;;;;;;;12.27;100.00;100494.53;5038038;28;20504;-80
2023/08/09 00:12:01;;;;;;;5.73;3.10;;;;;;;12.26;100.00;100492.03;5038359;28;20423;-79
2023/08/09 00:14:31;;;;;;;6.27;3.23;;;;;;;12.25;100.00;100493.91;5038009;28;20403;-79
2023/08/09 00:17:00;;;;;;;3.90;2.70;;;;;;;12.20;100.00;100491.03;5037423;28;20479;-79
2023/08/09 00:19:30;;;;;;;2.73;2.40;;;;;;;12.36;100.00;100493.19;5035146;28;20444;-78
2023/08/09 00:21:59;;;;;;;3.47;2.70;;;;;;;12.38;100.00;100501.97;5036379;28;20458;-79
2023/08/09 00:24:28;;;;;;;2.43;2.20;;;;;;;12.33;100.00;100490.94;5038451;28;20432;-78
2023/08/09 00:26:57;;;;;;;3.60;2.73;;;;;;;12.38;100.00;100496.53;5006092;28;20405;-80
2023/08/09 00:29:27;;;;;;;4.00;3.00;;;;;;;12.46;100.00;100498.13;5035406;28;20462;-79
2023/08/09 00:31:57;;;;;;;3.50;2.70;;;;;;;12.42;100.00;100502.34;5016295;28;20483;-79
2023/08/09 00:34:26;;;;;;;4.97;3.47;;;;;;;12.63;100.00;100508.16;5018859;28;20403;-79
2023/08/09 00:36:56;;;;;;;11.80;3.67;;;;;;;12.73;100.00;100512.25;5036722;28;20502;-80
2023/08/09 00:39:25;;;;;;;5.20;2.93;;;;;;;12.74;100.00;100508.47;5018593;28;20985;-78
2023/08/09 00:41:54;;;;;;;4.33;2.27;;;;;;;12.77;100.00;100510.75;5033404;28;20490;-79
2023/08/09 00:44:24;;;;;;;4.73;1.90;;;;;;;12.73;100.00;100514.97;5016522;28;20532;-78
2023/08/09 00:46:53;;;;;;;5.03;2.53;;;;;;;12.67;100.00;100510.44;5016233;28;20498;-79
2023/08/09 00:49:23;;;;;;;4.47;2.70;;;;;;;12.68;100.00;100509.38;5034955;28;20970;-78
2023/08/09 00:51:53;;;;;;;3.47;2.10;;;;;;;12.64;100.00;100512.53;5040682;28;20451;-79
2023/08/09 00:54:23;;;;;;;5.67;2.73;;;;;;;12.69;100.00;100519.16;5026928;28;20826;-79
2023/08/09 00:56:53;;;;;;;8.50;2.57;;;;;;;12.60;100.00;100514.03;5041916;28;20803;-79
2023/08/09 00:59:22;;;;;;;3.50;1.83;;;;;;;12.70;100.00;100520.84;5036928;28;20532;-79
2023/08/09 01:01:52;;;;;;;4.10;2.60;;;;;;;12.67;100.00;100524.00;5036554;28;21018;-79
2023/08/09 01:04:22;;;;;;;6.27;2.87;;;;;;;12.62;100.00;100525.53;5017191;28;20443;-79
2023/08/09 01:06:57;;;;;;;2.87;2.07;;;;;;;12.62;100.00;100525.53;5020035;28;20494;-79
2023/08/09 01:09:34;;;;;;;4.63;2.13;;;;;;;12.54;100.00;100528.50;5049178;28;20503;-79
2023/08/09 01:12:08;;;;;;;3.70;2.73;;;;;;;12.50;100.00;100521.03;5053510;28;20486;-79
2023/08/09 01:14:40;;;;;;;4.70;2.33;;;;;;;12.62;100.00;100520.09;5051223;28;20414;-79
2023/08/09 01:17:13;;;;;;;3.30;2.30;;;;;;;12.72;100.00;100506.00;5026706;28;20478;-79
2023/08/09 01:19:49;;;;;;;4.23;2.20;;;;;;;12.71;100.00;100506.22;5017723;28;20507;-79
2023/08/09 01:23:05;;;;;;;4.53;2.73;;;;;;;12.77;100.00;100505.31;5018352;28;20434;-79
2023/08/09 01:26:15;;;;;;;3.37;2.10;;;;;;;12.75;100.00;100515.56;4947658;29;20508;-79
2023/08/09 01:28:44;;;;;;;6.97;2.23;;;;;;;12.74;100.00;100512.00;4954175;29;20439;-80
2023/08/09 01:31:13;;;;;;;2.37;2.07;;;;;;;12.75;100.00;100516.41;4940355;29;21006;-79
2023/08/09 01:33:42;;;;;;;5.40;2.03;;;;;;;12.77;100.00;100521.59;4954942;29;20485;-79
2023/08/09 01:36:17;;;;;;;3.67;2.13;;;;;;;12.72;100.00;100518.75;4939375;29;20439;-80
2023/08/09 01:38:50;;;;;;;4.00;3.13;;;;;;;12.70;100.00;100523.56;4953644;29;20494;-79
2023/08/09 01:41:21;;;;;;;6.00;2.90;;;;;;;12.71;100.00;100528.75;4954425;29;21057;-79
2023/08/09 01:43:52;;;;;;;4.67;1.87;;;;;;;12.74;100.00;100517.44;4960960;29;20897;-79
2023/08/09 01:46:21;;;;;;;2.70;2.13;;;;;;;12.81;100.00;100517.38;4942834;29;20412;-79
2023/08/09 01:48:51;;;;;;;4.30;2.30;;;;;;;12.88;100.00;100512.69;4936727;29;20655;-79
2023/08/09 01:51:20;;;;;;;2.57;1.90;;;;;;;12.88;100.00;100509.97;4936354;29;20460;-80
2023/08/09 01:53:49;;;;;;;3.20;1.80;;;;;;;12.86;100.00;100509.38;4933442;29;20445;-79
2023/08/09 01:56:23;;;;;;;3.60;2.00;;;;;;;12.89;100.00;100508.94;4982931;28;20418;-79
2023/08/09 01:58:51;;;;;;;4.77;3.03;;;;;;;12.96;100.00;100505.09;5028965;28;20407;-79
2023/08/09 02:01:21;;;;;;;4.90;2.50;;;;;;;12.91;100.00;100501.41;5037203;28;20459;-79
2023/08/09 02:03:50;;;;;;;3.27;1.90;;;;;;;12.89;100.00;100501.63;5037379;28;20409;-79
2023/08/09 02:06:19;;;;;;;3.27;2.50;;;;;;;12.92;100.00;100500.34;5038857;28;20406;-79
2023/08/09 02:08:48;;;;;;;7.27;1.80;;;;;;;12.94;100.00;100507.19;5037328;28;20476;-79
2023/08/09 02:11:17;;;;;;;4.27;2.07;;;;;;;12.92;100.00;100497.63;5038458;28;20421;-79
2023/08/09 02:13:47;;;;;;;5.40;2.53;;;;;;;12.83;100.00;100504.44;5020960;28;20932;-78
2023/08/09 02:17:00;;;;;;;5.10;3.57;;;;;;;12.79;100.00;100504.03;5020902;28;20913;-80
2023/08/09 02:19:31;;;;;;;3.80;2.00;;;;;;;12.84;100.00;100506.88;5021055;28;20446;-79
2023/08/09 02:22:02;;;;;;;5.07;1.83;;;;;;;12.81;100.00;100509.25;5019476;28;20466;-79
2023/08/09 02:24:31;;;;;;;3.60;2.03;;;;;;;12.79;100.00;100516.75;5038597;28;20459;-80
2023/08/09 02:27:00;;;;;;;2.00;1.53;;;;;;;12.79;100.00;100514.06;5015218;28;20428;-78
2023/08/09 02:29:31;;;;;;;6.80;2.00;;;;;;;12.79;100.00;100511.34;5018244;28;20474;-79
2023/08/09 02:32:03;;;;;;;6.63;2.27;;;;;;;12.77;100.00;100513.47;5019610;28;20476;-78
2023/08/09 02:34:32;;;;;;;4.70;1.90;;;;;;;12.70;100.00;100518.94;5001441;28;20487;-80
2023/08/09 02:37:02;;;;;;;3.70;1.77;;;;;;;12.75;100.00;100526.41;5020201;28;20435;-79
2023/08/09 02:39:32;;;;;;;3.40;1.83;;;;;;;12.80;100.00;100526.56;5022594;28;20506;-80
2023/08/09 02:42:01;;;;;;;7.27;2.20;;;;;;;12.73;100.00;100525.84;5022509;28;20475;-79
2023/08/09 02:44:33;;;;;;;1.90;1.67;;;;;;;12.80;100.00;100516.56;5041651;28;20489;-79
2023/08/09 02:47:03;;;;;;;4.90;2.87;;;;;;;12.85;100.00;100524.00;5033262;28;20507;-79
2023/08/09 02:49:34;;;;;;;4.80;2.37;;;;;;;12.82;100.00;100524.47;5058731;28;20380;-79
2023/08/09 02:52:04;;;;;;;6.00;2.20;;;;;;;12.85;100.00;100524.00;5048503;28;20452;-79
2023/08/09 02:54:36;;;;;;;4.70;2.20;;;;;;;12.90;100.00;100526.88;5036150;28;20463;-78
2023/08/09 02:57:05;;;;;;;5.53;2.70;;;;;;;12.87;100.00;100530.91;5043990;28;20413;-79
2023/08/09 02:59:35;;;;;;;3.50;1.97;;;;;;;12.82;100.00;100529.91;5036538;28;20436;-79
2023/08/09 03:02:05;;;;;;;4.93;2.53;;;;;;;12.88;100.00;100535.25;5028003;28;20476;-79
2023/08/09 03:04:35;;;;;;;3.53;1.67;;;;;;;12.83;100.00;100537.81;5019440;28;20425;-79
2023/08/09 03:07:04;;;;;;;3.27;2.30;;;;;;;12.76;100.00;100541.66;5037734;28;20446;-79
2023/08/09 03:09:34;;;;;;;2.70;1.40;;;;;;;12.70;100.00;100534.41;5021127;28;20479;-79
2023/08/09 03:12:05;;;;;;;7.37;2.07;;;;;;;12.84;99.58;100535.94;5038570;28;20444;-79
2023/08/09 03:14:36;;;;;;;4.90;2.00;;;;;;;12.84;98.19;100546.78;5018852;28;20457;-78
2023/08/09 03:17:05;;;;;;;4.50;2.23;;;;;;;12.72;99.00;100537.75;5036264;28;20947;-78
2023/08/09 03:19:34;;;;;;;5.13;2.20;;;;;;;12.59;99.27;100536.81;5035634;28;20441;-79
2023/08/09 03:22:03;;;;;;;3.07;1.93;;;;;;;12.53;99.61;100532.28;5019997;28;20457;-79
2023/08/09 03:24:34;;;;;;;3.07;1.77;;;;;;;12.59;99.50;100535.97;5021065;28;20445;-79
2023/08/09 03:27:03;;;;;;;3.90;2.00;;;;;;;12.63;99.47;100531.78;5021965;28;20432;-79
2023/08/09 03:29:33;;;;;;;8.17;2.70;;;;;;;12.65;98.00;100537.81;5020350;28;20468;-79
2023/08/09 03:32:05;;;;;;;2.60;1.50;;;;;;;12.57;99.20;100548.97;5019016;28;20463;-79
2023/08/09 03:34:34;;;;;;;6.53;2.10;;;;;;;12.49;100.00;100555.47;5020226;28;20934;-79
2023/08/09 03:37:05;;;;;;;3.60;1.70;;;;;;;12.28;100.00;100565.91;5020240;28;20436;-79
2023/08/09 03:39:34;;;;;;;5.00;2.90;;;;;;;12.21;100.00;100565.97;5020621;28;20883;-79
2023/08/09 03:42:05;;;;;;;3.00;2.30;;;;;;;12.12;100.00;100559.97;5018919;28;20514;-79
2023/08/09 03:44:34;;;;;;;4.57;2.17;;;;;;;12.20;100.00;100562.41;5038225;28;20416;-79
2023/08/09 03:47:05;;;;;;;3.80;1.90;;;;;;;12.24;100.00;100560.09;5035533;28;20915;-79
2023/08/09 03:49:35;;;;;;;2.80;2.07;;;;;;;12.20;100.00;100564.28;5019525;28;20790;-79
2023/08/09 03:52:06;;;;;;;3.33;2.13;;;;;;;12.18;100.00;100558.28;5020294;28;20503;-79
2023/08/09 03:54:36;;;;;;;3.27;2.20;;;;;;;12.36;100.00;100563.75;5032029;28;20448;-79
2023/08/09 03:57:06;;;;;;;3.53;2.13;;;;;;;12.42;100.00;100570.19;5037755;28;20807;-78
2023/08/09 03:59:37;;;;;;;2.53;1.90;;;;;;;12.55;100.00;100570.88;5027268;28;20448;-79
2023/08/09 04:02:07;;;;;;;2.63;1.87;;;;;;;13.13;100.00;100565.09;5051491;28;20551;-79
2023/08/09 04:04:36;;;;;;;6.80;1.87;;;;;;;13.81;97.20;100567.56;5055059;28;20380;-80
2023/08/09 04:07:06;;;;;;;5.87;2.33;;;;;;;13.81;93.48;100573.00;5045637;28;20422;-79
2023/08/09 04:09:36;;;;;;;4.33;2.97;;;;;;;13.98;93.72;100568.56;5054782;28;20432;-79
2023/08/09 04:12:05;;;;;;;3.33;1.70;;;;;;;14.22;90.62;100573.00;5046557;28;20448;-78
2023/08/09 04:14:35;;;;;;;3.27;1.83;;;;;;;15.20;86.22;100585.97;5035060;28;20415;-78
2023/08/09 04:17:06;;;;;;;3.47;1.90;;;;;;;16.07;81.53;100586.63;5035385;28;20491;-79
2023/08/09 04:19:35;;;;;;;4.03;2.40;;;;;;;16.41;77.08;100582.81;5036043;28;20384;-78
2023/08/09 04:22:04;;;;;;;2.03;1.43;;;;;;;15.63;79.98;100590.97;5015981;28;20445;-80
2023/08/09 04:24:34;;;;;;;4.73;2.03;;;;;;;14.92;83.89;100591.28;5020078;28;20415;-79
2023/08/09 04:27:03;;;;;;;2.97;1.97;;;;;;;14.40;88.18;100590.34;5041568;28;20409;-79
2023/08/09 04:29:33;;;;;;;3.50;1.93;;;;;;;14.91;88.13;100595.91;5046017;28;20415;-79
2023/08/09 04:32:02;;;;;;;6.50;2.33;;;;;;;16.41;80.14;100601.13;5029831;28;20464;-79
2023/08/09 04:34:33;;;;;;;3.20;1.90;;;;;;;17.45;73.41;100602.16;5029149;28;20471;-79
2023/08/09 04:37:02;;;;;;;3.93;1.90;;;;;;;18.02;69.49;100601.72;5043571;28;20461;-79
2023/08/09 04:39:33;;;;;;;3.77;1.30;;;;;;;18.88;65.16;100606.06;5040497;28;20451;-79
2023/08/09 04:42:03;;;;;;;2.60;1.70;;;;;;;19.37;63.28;100603.88;5035124;28;20465;-79
2023/08/09 04:44:32;;;;;;;4.70;1.83;;;;;;;19.90;60.41;100612.91;5052463;28;20407;-79
2023/08/09 04:47:03;;;;;;;7.90;2.17;;;;;;;20.00;59.42;100615.69;5055387;28;20425;-79
2023/08/09 04:58:18;;;;;;;6.07;2.00;;;;;;;21.52;54.70;100640.41;5050302;28;20412;-79
2023/08/09 05:00:47;;;;;;;4.07;2.30;;;;;;;20.97;55.27;100633.06;5049307;28;20391;-79
2023/08/09 05:03:17;;;;;;;4.40;1.80;;;;;;;19.94;57.76;100636.00;5047901;28;20511;-79
2023/08/09 05:05:46;;;;;;;2.50;1.60;;;;;;;18.79;61.07;100628.75;5050856;28;20403;-79
2023/08/09 05:08:15;;;;;;;3.57;1.70;;;;;;;18.13;63.16;100630.88;5050277;28;20450;-79
2023/08/09 05:10:44;;;;;;;2.60;1.80;;;;;;;17.49;65.34;100636.13;5049121;28;20797;-80
2023/08/09 05:13:13;;;;;;;3.90;2.20;;;;;;;16.50;70.58;100632.44;5033191;28;20402;-79
2023/08/09 05:15:44;;;;;;;6.20;1.47;;;;;;;16.37;71.21;100635.44;5049629;28;20399;-79
2023/08/09 05:18:14;;;;;;;7.83;1.83;;;;;;;16.46;71.70;100637.53;5041274;28;20459;-79
2023/08/09 05:20:43;;;;;;;2.50;1.70;;;;;;;16.68;73.13;100647.78;5028463;28;20421;-78
2023/08/09 05:23:12;;;;;;;3.50;1.80;;;;;;;17.55;66.66;100651.53;5041972;28;20562;-78
2023/08/09 05:25:42;;;;;;;4.30;2.17;;;;;;;18.72;61.80;100647.34;5046415;28;20471;-78
2023/08/09 05:28:11;;;;;;;3.73;2.13;;;;;;;18.28;62.22;100647.47;5040372;28;20419;-79
2023/08/09 05:30:40;;;;;;;5.70;2.00;;;;;;;17.14;66.75;100649.28;5036667;28;20436;-80
2023/08/09 05:33:11;;;;;;;2.43;1.97;;;;;;;16.17;72.07;100651.50;5035884;28;20456;-80
2023/08/09 05:35:40;;;;;;;4.30;1.97;;;;;;;15.56;75.78;100645.66;5035699;28;20429;-79
2023/08/09 05:38:09;;;;;;;7.17;4.13;;;;;;;15.48;76.60;100646.00;5001941;28;20544;-79
2023/08/09 05:40:38;;;;;;;8.40;2.70;;;;;;;15.40;78.17;100640.06;4997354;28;20437;-79
2023/08/09 05:43:07;;;;;;;4.13;1.87;;;;;;;15.29;76.69;100646.38;5026867;28;20439;-77
2023/08/09 05:45:36;;;;;;;5.70;2.33;;;;;;;15.35;76.82;100646.22;5033513;28;20427;-79
2023/08/09 05:48:07;;;;;;;6.53;2.00;;;;;;;15.36;79.24;100639.72;5017918;28;20514;-79
2023/08/09 05:50:39;;;;;;;7.53;1.90;;;;;;;15.46;78.10;100648.13;5017965;28;20415;-79
2023/08/09 05:53:09;;;;;;;4.23;1.53;;;;;;;15.54;78.16;100639.59;5037909;28;20444;-79
2023/08/09 05:55:39;;;;;;;7.97;2.13;;;;;;;15.66;77.60;100634.13;5017642;28;20768;-79
2023/08/09 05:58:09;;;;;;;4.07;1.83;;;;;;;15.73;75.36;100647.63;5023038;28;20508;-78
2023/08/09 06:00:38;;;;;;;3.23;2.30;;;;;;;15.96;74.98;100644.81;5047130;28;20407;-79
2023/08/09 06:03:07;;;;;;;3.47;1.70;;;;;;;16.20;74.76;100653.72;5114775;23;20487;-79
2023/08/09 06:05:38;;;;;;;7.53;2.40;;;;;;;16.51;74.01;100647.72;5060003;28;20401;-83
2023/08/09 06:08:07;;;;;;;4.00;1.67;;;;;;;16.72;70.56;100652.50;5059905;28;20414;-81
2023/08/09 06:10:36;;;;;;;3.70;1.77;;;;;;;16.99;69.46;100655.41;5066779;28;20527;-80
2023/08/09 06:13:06;;;;;;;6.83;2.03;;;;;;;17.15;69.76;100654.53;5053837;28;20491;-82
2023/08/09 06:15:35;;;;;;;5.23;1.67;;;;;;;16.77;68.02;100660.78;5052915;28;20435;-80
2023/08/09 06:18:05;;;;;;;5.53;2.03;;;;;;;16.84;68.69;100655.97;5057657;28;20431;-80
2023/08/09 06:20:34;;;;;;;2.90;1.20;;;;;;;16.91;68.33;100656.63;5061478;28;20402;-81
2023/08/09 06:23:05;;;;;;;4.30;1.50;;;;;;;16.74;69.21;100660.44;5066581;28;20446;-79
2023/08/09 06:25:34;;;;;;;4.60;1.60;;;;;;;16.78;70.34;100664.34;5077968;28;20494;-80
2023/08/09 06:28:03;;;;;;;8.80;2.20;;;;;;;16.26;69.91;100660.94;5069975;28;20420;-79
2023/08/09 06:30:33;;;;;;;7.47;2.07;;;;;;;16.36;74.39;100672.06;5045310;28;20513;-78
2023/08/09 06:33:02;;;;;;;6.30;1.63;;;;;;;16.37;72.94;100674.53;5055442;28;20434;-80
2023/08/09 06:35:32;;;;;;;7.10;2.37;;;;;;;16.43;72.15;100675.44;5066029;28;20470;-83
2023/08/09 06:38:01;;;;;;;8.53;1.93;;;;;;;16.53;71.14;100665.53;5063519;28;20927;-81
2023/08/09 06:40:44;;;;;;;6.57;1.97;;;;;;;16.79;69.95;100675.03;5077917;28;20386;-81
2023/08/09 06:43:13;;;;;;;4.10;1.60;;;;;;;16.99;70.32;100665.50;5080795;28;20444;-79
2023/08/09 06:45:45;;;;;;;1.90;1.33;;;;;;;17.04;70.01;100676.50;5084183;28;20419;-80
2023/08/09 06:48:14;;;;;;;5.23;1.70;;;;;;;17.33;69.49;100670.63;5070587;28;20437;-78
2023/08/09 06:50:46;;;;;;;5.07;2.37;;;;;;;17.73;69.15;100678.59;5070938;28;20405;-81
2023/08/09 06:53:15;;;;;;;6.20;2.17;;;;;;;17.32;67.18;100674.47;5073181;28;20877;-82
2023/08/09 06:55:46;;;;;;;3.87;2.10;;;;;;;17.15;67.67;100678.31;5073216;28;20494;-82
2023/08/09 06:58:15;;;;;;;4.90;2.87;;;;;;;17.27;68.79;100671.66;5080916;28;20407;-80
2023/08/09 07:00:46;;;;;;;7.83;2.33;;;;;;;17.55;68.83;100673.41;5071386;28;20423;-78
2023/08/09 07:03:15;;;;;;;5.60;2.20;;;;;;;17.85;69.28;100677.66;5062955;28;20508;-82
2023/08/09 07:05:44;;;;;;;2.63;1.70;;;;;;;18.04;65.60;100678.97;5077001;28;20445;-83
2023/08/09 07:08:14;;;;;;;5.90;1.97;;;;;;;18.18;65.61;100683.81;5065501;28;20432;-81
2023/08/09 07:10:44;;;;;;;8.73;2.50;;;;;;;18.13;64.86;100683.75;5073880;28;20435;-82
2023/08/09 07:13:13;;;;;;;3.63;1.77;;;;;;;18.35;65.27;100688.38;5063545;28;20518;-83
2023/08/09 07:15:42;;;;;;;4.30;2.30;;;;;;;18.12;65.01;100692.22;5061063;28;20406;-81
2023/08/09 07:18:12;;;;;;;4.47;2.00;;;;;;;18.39;65.52;100694.97;5068933;28;20397;-82
2023/08/09 07:20:41;;;;;;;5.20;1.30;;;;;;;18.30;63.06;100697.31;5077820;28;20526;-84
2023/08/09 07:23:10;;;;;;;9.27;2.60;;;;;;;18.33;63.13;100696.84;5059948;28;20903;-81
2023/08/09 07:25:40;;;;;;;5.17;1.60;;;;;;;18.84;64.01;100697.34;5066272;28;20502;-83
2023/08/09 07:28:11;;;;;;;5.67;1.97;;;;;;;19.02;62.37;100699.69;5073969;28;20493;-82
2023/08/09 07:30:40;;;;;;;2.70;1.67;;;;;;;18.68;60.64;100699.13;5069735;28;20959;-82
2023/08/09 07:33:13;;;;;;;4.27;2.00;;;;;;;18.07;63.17;100709.41;5060888;28;20414;-82
2023/08/09 07:35:43;;;;;;;4.87;2.27;;;;;;;18.01;62.74;100706.88;5073702;28;20465;-81
2023/08/09 07:38:12;;;;;;;6.63;2.17;;;;;;;18.27;63.32;100707.97;5068857;28;20457;-80
2023/08/09 07:40:41;;;;;;;9.03;2.20;;;;;;;18.30;62.61;100718.44;5055227;28;20431;-82
2023/08/09 07:43:12;;;;;;;4.90;1.73;;;;;;;17.96;61.86;100717.78;5066820;28;20726;-82
2023/08/09 07:45:45;;;;;;;4.20;1.67;;;;;;;17.92;62.77;100722.06;5061058;28;20746;-80
2023/08/09 07:48:15;;;;;;;4.20;2.27;;;;;;;18.11;63.17;100726.16;5070449;28;20428;-83
2023/08/09 07:50:44;;;;;;;6.77;2.13;;;;;;;18.34;62.75;100727.78;5047060;28;20436;-82
2023/08/09 07:53:13;;;;;;;5.37;1.90;;;;;;;18.19;61.29;100739.41;5054543;28;20810;-81
2023/08/09 07:55:42;;;;;;;2.37;1.50;;;;;;;18.37;62.52;100733.59;5056649;28;20853;-82
2023/08/09 07:58:12;;;;;;;8.20;2.00;;;;;;;18.39;60.08;100736.06;5059403;28;20951;-82
2023/08/09 08:00:41;;;;;;;10.23;1.90;;;;;;;18.42;61.22;100746.50;5054368;28;20444;-82
2023/08/09 08:03:30;;;;;;;4.17;1.80;;;;;;;18.42;62.26;100750.06;5057905;28;20841;-82
2023/08/09 08:05:59;;;;;;;5.13;1.67;;;;;;;18.35;62.04;100749.44;5063867;28;20435;-83
2023/08/09 08:08:29;;;;;;;4.60;1.53;;;;;;;18.20;62.93;100752.03;5059929;28;20447;-83
2023/08/09 08:10:58;;;;;;;8.80;2.63;;;;;;;18.13;63.28;100748.63;5062903;28;20541;-80
2023/08/09 08:13:29;;;;;;;5.53;2.40;;;;;;;18.29;60.26;100755.97;5050837;28;21123;-81
2023/08/09 08:15:58;;;;;;;5.13;2.00;;;;;;;18.66;60.03;100762.41;5061639;28;20753;-81
2023/08/09 08:18:27;;;;;;;4.47;1.90;;;;;;;18.82;59.75;100765.31;5055182;28;20417;-83
2023/08/09 08:20:57;;;;;;;4.10;1.67;;;;;;;18.84;59.29;100768.63;5049517;28;20441;-82
2023/08/09 08:23:26;;;;;;;10.10;2.27;;;;;;;19.37;58.35;100763.03;5059028;28;20939;-80
2023/08/09 08:25:55;;;;;;;5.47;2.10;;;;;;;20.19;55.87;100765.16;5073281;28;20394;-81
2023/08/09 08:28:25;;;;;;;6.17;2.47;;;;;;;19.93;54.53;100760.69;5055058;28;20435;-82
2023/08/09 08:30:56;;;;;;;5.37;1.93;;;;;;;19.82;54.38;100769.94;5071502;28;20443;-82
2023/08/09 08:33:27;;;;;;;6.77;1.90;;;;;;;19.86;54.77;100782.03;5064028;28;20552;-82
2023/08/09 08:35:56;;;;;;;5.43;1.47;;;;;;;19.96;54.77;100784.84;5071805;28;20445;-81
2023/08/09 08:38:45;;;;;;;7.37;2.10;;;;;;;20.11;56.58;100778.59;5061764;28;20494;-81
2023/08/09 08:41:16;;;;;;;6.13;2.53;;;;;;;20.20;54.02;100783.31;5065302;28;20438;-81
2023/08/09 08:43:46;;;;;;;3.57;1.70;;;;;;;19.41;55.06;100774.34;5057651;28;20466;-81
2023/08/09 08:46:17;;;;;;;3.23;1.63;;;;;;;19.57;55.47;100784.34;5051437;28;20441;-80
2023/08/09 08:48:49;;;;;;;9.60;2.23;;;;;;;19.97;56.44;100783.75;5065313;28;20430;-80
2023/08/09 08:51:24;;;;;;;10.10;2.10;;;;;;;20.05;54.41;100786.00;5056896;28;20439;-81
2023/08/09 08:53:54;;;;;;;6.40;1.63;;;;;;;20.29;53.50;100787.19;5065263;28;20824;-83
2023/08/09 08:56:24;;;;;;;11.40;1.90;;;;;;;20.16;54.82;100787.69;5073705;28;20372;-81
2023/08/09 08:58:53;;;;;;;4.77;1.50;;;;;;;20.48;54.45;100795.81;5073149;28;20747;-81
2023/08/09 09:01:26;;;;;;;4.83;1.50;;;;;;;20.36;52.84;100804.31;5076367;28;20426;-83
2023/08/09 09:03:57;;;;;;;4.00;1.53;;;;;;;20.91;52.77;100811.06;5067585;28;20442;-82
2023/08/09 09:06:27;;;;;;;5.47;2.00;;;;;;;20.55;54.64;100810.16;5069959;28;20422;-81
2023/08/09 09:08:59;;;;;;;12.70;1.80;;;;;;;20.71;53.58;100813.78;5071796;28;20402;-83
2023/08/09 09:11:28;;;;;;;7.13;2.13;;;;;;;20.32;53.93;100807.88;5059846;28;20424;-83
2023/08/09 09:13:59;;;;;;;3.30;2.00;;;;;;;20.25;53.77;100819.06;5068927;28;20417;-82
2023/08/09 10:14:26;;;;;;;4.30;1.70;;;;;;;21.18;48.61;100817.19;5245275;23;20499;-82
2023/08/09 10:26:40;;;;;;;4.07;2.03;;;;;;;20.42;49.11;100823.56;4945521;29;20422;-82
2023/08/09 10:29:12;;;;;;;5.30;2.10;;;;;;;20.02;50.54;100829.66;4941373;29;20411;-83
2023/08/09 10:31:52;;;;;;;4.17;1.43;;;;;;;20.11;50.86;100828.88;4928561;29;20499;-82
2023/08/09 10:34:24;;;;;;;6.13;2.50;;;;;;;20.67;51.17;100829.16;4944468;29;20411;-83
2023/08/09 10:36:55;;;;;;;4.07;1.70;;;;;;;21.05;50.23;100834.19;4945691;29;20436;-82
2023/08/09 10:39:25;;;;;;;4.03;1.70;;;;;;;20.78;48.49;100841.81;4934763;29;20451;-82
2023/08/09 10:42:00;;;;;;;3.37;1.50;;;;;;;20.02;49.13;100844.22;4943450;29;21038;-83
2023/08/09 10:44:39;;;;;;;6.33;1.60;;;;;;;20.08;49.88;100843.16;4943382;29;21102;-82
2023/08/09 10:47:12;;;;;;;4.70;1.67;;;;;;;20.57;51.03;100848.38;4942469;29;20544;-83
2023/08/09 10:50:10;;;;;;;4.17;1.40;;;;;;;21.08;48.38;100855.66;4939666;29;20859;-82
2023/08/09 10:52:42;;;;;;;7.00;2.10;;;;;;;21.26;48.18;100840.56;4957469;28;20516;-83
2023/08/09 10:55:28;;;;;;;4.90;1.50;;;;;;;21.53;46.63;100845.81;5005318;28;20430;-81
2023/08/09 10:58:01;;;;;;;2.07;1.00;;;;;;;20.68;48.26;100850.03;5014778;28;20429;-82
2023/08/09 11:00:41;;;;;;;6.53;2.13;;;;;;;20.61;47.96;100847.56;5013115;28;20899;-82
2023/08/09 11:03:12;;;;;;;5.83;2.33;;;;;;;20.92;48.71;100850.38;5007153;28;20456;-82
2023/08/09 11:05:45;;;;;;;3.33;1.10;;;;;;;20.82;47.77;100860.25;5002728;28;20917;-82
2023/08/09 11:08:19;;;;;;;3.77;1.70;;;;;;;20.52;48.33;100842.84;4988540;28;20461;-82
2023/08/09 11:10:49;;;;;;;3.73;1.23;;;;;;;20.67;48.79;100851.97;5010040;28;20493;-80
2023/08/09 11:13:20;;;;;;;4.43;1.50;;;;;;;21.37;50.01;100847.72;5009418;28;20462;-82
2023/08/09 11:15:51;;;;;;;3.50;1.63;;;;;;;22.05;47.40;100849.06;4992576;28;20484;-81
2023/08/09 11:18:20;;;;;;;3.50;1.40;;;;;;;22.14;45.68;100859.53;5001623;28;20443;-81
2023/08/09 11:20:49;;;;;;;4.50;1.70;;;;;;;21.35;45.78;100855.44;5015549;28;20435;-82
2023/08/09 11:23:20;;;;;;;3.40;1.30;;;;;;;20.79;48.14;100862.72;5004640;28;20469;-82
2023/08/09 11:25:50;;;;;;;4.80;1.27;;;;;;;21.44;47.47;100855.72;5001738;28;21268;-80
2023/08/09 11:28:21;;;;;;;5.67;1.33;;;;;;;21.46;47.26;100861.78;5014936;28;20468;-80
2023/08/09 11:30:53;;;;;;;3.60;1.20;;;;;;;21.45;47.68;100866.44;5012706;28;20498;-81
2023/08/09 11:33:25;;;;;;;6.90;1.30;;;;;;;20.86;49.10;100873.50;5012804;28;20461;-82
2023/08/09 11:35:55;;;;;;;2.40;1.10;;;;;;;20.95;49.69;100872.69;5008765;28;20459;-82
2023/08/09 11:38:23;;;;;;;3.67;1.77;;;;;;;20.76;48.97;100868.78;5002305;28;20812;-81
2023/08/09 11:40:53;;;;;;;4.20;1.20;;;;;;;19.96;49.67;100870.81;5000530;28;20442;-83
2023/08/09 11:43:27;;;;;;;3.10;1.90;;;;;;;20.03;51.07;100872.53;4997650;28;20505;-81
2023/08/09 11:45:57;;;;;;;3.30;1.83;;;;;;;20.47;51.08;100859.31;4999969;28;20465;-83
2023/08/09 11:48:29;;;;;;;3.53;1.27;;;;;;;20.67;48.97;100871.22;4989433;28;20449;-83
2023/08/09 11:51:09;;;;;;;4.03;1.30;;;;;;;20.65;48.88;100865.16;4999455;28;20469;-82
2023/08/09 11:53:39;;;;;;;3.50;1.43;;;;;;;20.87;48.96;100875.94;5001593;28;20434;-83
2023/08/09 11:56:12;;;;;;;3.30;1.63;;;;;;;20.41;49.20;100871.38;5005475;28;20430;-83
2023/08/09 11:58:45;;;;;;;6.27;1.57;;;;;;;20.34;50.47;100875.19;4996872;28;20472;-81
2023/08/09 12:01:15;;;;;;;2.73;1.10;;;;;;;20.70;51.01;100875.34;5004408;28;20416;-82
2023/08/09 12:04:26;;;;;;;6.13;2.00;;;;;;;20.68;49.72;100866.53;5080157;23;20576;-80
2023/08/09 12:06:57;;;;;;;5.80;2.13;;;;;;;21.23;50.26;100869.47;5076102;28;20529;-79
2023/08/09 12:09:30;;;;;;;4.10;1.43;;;;;;;21.70;48.95;100879.38;5075926;28;20430;-78
2023/08/09 12:12:08;;;;;;;4.23;1.03;;;;;;;21.37;47.87;100879.94;5081582;28;20561;-80
2023/08/09 12:14:41;;;;;;;3.97;1.57;;;;;;;21.38;47.02;100878.84;5062460;28;20434;-80
2023/08/09 12:17:19;;;;;;;3.23;1.10;;;;;;;21.75;46.23;100879.38;5048884;28;20459;-79
2023/08/09 12:19:52;;;;;;;4.17;1.70;;;;;;;22.11;45.17;100874.69;5056169;28;20436;-79
2023/08/09 12:22:22;;;;;;;4.33;1.50;;;;;;;22.60;45.50;100883.09;5068459;28;20512;-80
2023/08/09 12:24:51;;;;;;;4.10;1.80;;;;;;;22.30;44.82;100877.69;5066621;28;20438;-78
2023/08/09 12:27:22;;;;;;;4.53;1.50;;;;;;;21.53;45.26;100871.44;5051996;28;20811;-80
2023/08/09 12:29:53;;;;;;;5.63;1.63;;;;;;;21.51;46.76;100872.78;5042756;28;20479;-80
2023/08/09 12:32:22;;;;;;;3.37;1.10;;;;;;;21.52;47.10;100882.69;5072441;28;20748;-79
2023/08/09 12:34:54;;;;;;;5.10;1.73;;;;;;;21.77;45.18;100879.94;5070391;28;20435;-80
2023/08/09 12:37:27;;;;;;;5.23;1.57;;;;;;;21.72;45.28;100877.19;5075543;28;20422;-79
2023/08/09 12:39:56;;;;;;;5.17;1.10;;;;;;;22.07;44.58;100890.94;5063531;28;20455;-80
2023/08/09 12:42:26;;;;;;;4.73;1.90;;;;;;;21.72;45.37;100881.88;5064916;28;20479;-80
2023/08/09 12:44:57;;;;;;;2.20;1.10;;;;;;;21.28;45.39;100889.84;5060047;28;20435;-77
2023/08/09 12:47:26;;;;;;;6.30;1.80;;;;;;;21.11;46.07;100890.88;5063817;28;20424;-79
2023/08/09 12:49:56;;;;;;;3.20;1.50;;;;;;;21.46;47.25;100894.81;5048567;28;20402;-80
2023/08/09 12:56:14;;;;;;;3.73;1.50;;;;;;;21.64;46.29;100902.50;5056231;28;20425;-78
2023/08/09 12:58:43;;;;;;;3.40;1.43;;;;;;;21.35;46.00;100904.19;5057997;28;20427;-79
2023/08/09 13:01:14;;;;;;;5.77;2.30;;;;;;;21.37;47.46;100907.47;5061907;28;20461;-81